Skagway, AK

11:30 PM AKDT on July 22, 2014 (GMT -0800)
Skagway (PAGY) Elev 16 ft | 59.46 °N, 135.32 °W | Change Station

Current weather conditions updated 37 minutes ago

Clear
Clear
64 °F
Feels Like 64 °F
N
20
Wind Variable Wind from SSW

Tomorrow is forecast to be Much Cooler than today.

Today
High -- | Low -- °F
--% Chance of Precip.
Yesterday
High -- | Low -- °F
Precip. -- in
4:24 AM 9:49 PM
Waning Crescent, 12% visible
Pressure 29.96 in
Visibility 10.0 miles
Clouds Clear
Dew Point 51 °F
Humidity 63%
Rainfall 0.00 in
Snow Depth Not available.
UV 0 out of 12
Pollen Not available.
Air Quality Not available.
Flu Activity Not available.
METAR PAGY 230653Z AUTO 20017KT 10SM CLR 18/11 A2996 RMK AO2 SLP145 T01780106 TSNO

More Conditions Fewer Conditions

Pressure 29.96 in
Visibility 10.0 miles
Clouds Clear
Dew Point 51 °F
Humidity 63%
Rainfall 0.00 in
Snow Depth Not available.
UV 0 out of 12
Pollen Not available.
Air Quality Not available.
Flu Activity Not available.
METAR PAGY 230653Z AUTO 20017KT 10SM CLR 18/11 A2996 RMK AO2 SLP145 T01780106 TSNO

More Conditions Fewer Conditions

10-Day Weather Forecast

Almanac

Astronomy

Jul. 22, 2014 Rise Set
Actual Time 4:24 AM AKDT 9:49 PM AKDT
Civil Twilight 3:17 AM AKDT 10:55 PM AKDT
Nautical Twilight 1:40 AM AKDT 12:35 AM AKDT
Astronomical Twilight Sun does not rise Sun does not rise
Moon 1:16 AM AKDT (7/22) 6:25 PM AKDT (7/22)
Length of Visible Light 19h 38m
Length of Day
17h 25m
Tomorrow will be 4m 11s shorter.
Waning Crescent, 12% of the Moon is Illuminated
Jul 23
Waning Crescent
Jul 26
New
Aug 3
First Quarter
Aug 10
Full
Aug 17
Last Quarter

Community

WunderPhotos

Upload Photos

1,736,527 photos uploaded!

Nearby

Snow Depth

Station Depth Elevation
Long Lake 0 in 820 ft
Upper Tsaina River 0 in 1750 ft
Moraine 0 in 2100 ft
Granite Creek 0 in 1240 ft
Grandview 1 in 1100 ft

Earthquake Activity

City Distance Mag. Time & Date
No recent earthquake activity has been reported nearby.
Minimum magnitude displayed is 2.5.

Coastal Water Temperatures

Place Temperature
No Stations Reporting

Nearby Weather Stations

Station Location Temp. Windchill Dew Point Humidity Wind Precip. Elev Updated Type
HADS TAIYA R NR SKAGWAY AK , Skagway, AK 65 °F - - - North  at  - 0.00 in / hr 539 ft 10:00 PM AKDT MADIS
RAWS TAIYA RIVER AK, Skagway, AK 59 °F - 54 °F 84% North  at  1 mph 0.00 in / hr 49 ft 10:24 PM AKDT MADIS
RAWS SHEEP CAMP AK, Skagway, AK 46 °F 46 °F 46 °F 100% North  at  0 mph 0.00 in / hr 919 ft 10:24 PM AKDT MADIS
HADS CHILKAT RIVER NEAR KLUKWAN AK, Haines, AK 61 °F - - - North  at  - 0.00 in / hr 115 ft 10:00 PM AKDT MADIS
AKDOT Haines Highway @ Chilkat River Bri, Haines, AK 63 °F - 51 °F 65% ESE  at  4 mph 0.00 in / hr 160 ft 10:50 PM AKDT MADIS
RAWS GOAT LAKE AK, Skagway, AK 54 °F - 47 °F 78% North  at  - 0.00 in / hr 2924 ft 10:24 PM AKDT MADIS

Show More Stations Show Fewer Stations